Time;durP1;ratioP1;P1;durP2;ratioP2;P2;SDS_P1;SDS_P2;PMS_P1;PMS_P2;Temp;Humidity;BMP_temperature;BMP_pressure;BME280_temperature;BME280_humidity;BME280_pressure;Samples;Min_cycle;Max_cycle;Signal;HPM_P1;HPM_P2
2022/01/16 00:00:18;;;;;;;37.03;22.17;;;6.00;99.90;;;;;;5036321;28;20442;-62
2022/01/16 00:05:31;;;;;;;39.10;21.47;;;6.00;99.90;;;;;;5036045;28;20442;-62
2022/01/16 00:07:58;;;;;;;37.70;22.97;;;5.90;99.90;;;;;;5036179;28;20449;-62
2022/01/16 00:10:27;;;;;;;33.47;22.50;;;5.90;99.90;;;;;;5036121;28;20451;-62
2022/01/16 00:12:58;;;;;;;37.40;23.57;;;5.90;99.90;;;;;;5035802;28;20505;-62
2022/01/16 00:15:25;;;;;;;40.70;24.67;;;5.80;99.90;;;;;;5035642;28;20490;-63
2022/01/16 00:17:55;;;;;;;38.40;23.90;;;5.80;99.90;;;;;;5036101;28;20450;-63
2022/01/16 00:20:23;;;;;;;39.87;24.40;;;5.80;99.90;;;;;;5035726;28;20999;-63
2022/01/16 00:22:51;;;;;;;34.97;21.27;;;5.80;99.90;;;;;;5035942;28;20454;-62
2022/01/16 00:25:17;;;;;;;34.47;24.30;;;5.80;99.90;;;;;;5035469;28;21056;-62
2022/01/16 00:27:46;;;;;;;33.83;23.10;;;5.70;99.90;;;;;;5035550;28;20451;-62
2022/01/16 00:30:13;;;;;;;36.07;22.93;;;5.60;99.90;;;;;;5035819;28;20458;-62
2022/01/16 00:32:40;;;;;;;32.90;22.87;;;5.60;99.90;;;;;;5035781;28;20534;-62
2022/01/16 00:35:07;;;;;;;41.67;26.77;;;5.60;99.90;;;;;;5035533;28;20508;-62
2022/01/16 00:37:34;;;;;;;31.20;20.77;;;5.60;99.90;;;;;;5035657;28;20449;-63
2022/01/16 00:40:01;;;;;;;37.57;24.23;;;5.50;99.90;;;;;;5035306;28;20458;-63
2022/01/16 00:42:27;;;;;;;31.33;22.20;;;5.50;99.90;;;;;;5035268;28;20860;-63
2022/01/16 00:44:55;;;;;;;37.70;21.40;;;5.50;99.90;;;;;;5035471;28;20481;-62
2022/01/16 00:47:22;;;;;;;36.83;22.83;;;5.50;99.90;;;;;;5035458;28;20899;-62
2022/01/16 00:49:49;;;;;;;35.37;21.47;;;5.60;99.90;;;;;;5035394;28;20500;-62
2022/01/16 00:52:15;;;;;;;29.57;20.47;;;5.60;99.90;;;;;;5035369;28;20476;-62
2022/01/16 00:54:42;;;;;;;28.40;19.93;;;5.60;99.90;;;;;;5034893;28;20499;-62
2022/01/16 00:57:09;;;;;;;29.77;18.53;;;5.60;99.90;;;;;;5035273;28;20474;-62
2022/01/16 00:59:36;;;;;;;30.00;19.60;;;5.70;99.90;;;;;;5035288;28;20520;-62
2022/01/16 01:02:04;;;;;;;33.80;20.67;;;5.60;99.90;;;;;;5035206;28;20443;-62
2022/01/16 01:04:31;;;;;;;30.23;20.43;;;5.70;99.90;;;;;;5035123;28;20466;-63
2022/01/16 01:06:58;;;;;;;28.10;17.87;;;5.60;99.90;;;;;;5035151;28;20450;-62
2022/01/16 01:09:25;;;;;;;31.07;18.10;;;5.60;99.90;;;;;;5035066;28;20465;-62
2022/01/16 01:11:51;;;;;;;27.97;18.70;;;5.50;99.90;;;;;;5035030;28;20442;-62
2022/01/16 01:14:25;;;;;;;29.07;18.33;;;5.50;99.90;;;;;;5034669;28;20485;-63
2022/01/16 01:16:54;;;;;;;27.97;18.50;;;5.50;99.90;;;;;;5034724;28;20431;-63
2022/01/16 01:19:28;;;;;;;35.63;18.23;;;5.50;99.90;;;;;;5034860;28;20457;-62
2022/01/16 01:21:55;;;;;;;30.50;18.33;;;5.50;99.90;;;;;;5034874;28;20442;-62
2022/01/16 01:24:23;;;;;;;27.37;17.67;;;5.50;99.90;;;;;;5034679;28;20533;-62
2022/01/16 01:26:55;;;;;;;28.90;18.17;;;5.50;99.90;;;;;;5034701;28;20857;-62
2022/01/16 01:29:21;;;;;;;32.50;17.27;;;5.40;99.90;;;;;;5034667;28;20442;-62
2022/01/16 01:31:51;;;;;;;25.50;16.20;;;5.40;99.90;;;;;;5034587;28;20447;-62
2022/01/16 01:34:18;;;;;;;28.67;17.20;;;5.30;99.90;;;;;;5034300;28;20616;-62
2022/01/16 01:36:48;;;;;;;28.03;18.37;;;5.20;99.90;;;;;;5034443;28;20446;-62
2022/01/16 01:39:15;;;;;;;35.17;22.03;;;5.10;99.90;;;;;;5034873;28;20457;-62
2022/01/16 01:41:43;;;;;;;26.67;17.83;;;5.00;99.90;;;;;;5034091;28;20453;-62
2022/01/16 01:52:23;;;;;;;33.97;18.27;;;5.00;99.90;;;;;;5034365;28;20529;-62
2022/01/16 01:54:49;;;;;;;29.50;18.50;;;4.90;99.90;;;;;;5033653;28;20493;-62
2022/01/16 01:57:16;;;;;;;32.30;17.17;;;4.80;99.90;;;;;;5034197;28;20450;-62
2022/01/16 01:59:43;;;;;;;27.83;18.00;;;4.80;99.90;;;;;;5034152;28;20446;-62
2022/01/16 02:02:10;;;;;;;27.97;16.80;;;4.80;99.90;;;;;;5034104;28;20478;-62
2022/01/16 02:04:37;;;;;;;28.63;18.73;;;4.70;99.90;;;;;;5033978;28;20818;-63
2022/01/16 02:07:04;;;;;;;32.83;19.17;;;4.80;99.90;;;;;;5034114;28;20446;-62
2022/01/16 02:09:33;;;;;;;25.80;17.57;;;4.70;99.90;;;;;;5034019;28;20453;-62
2022/01/16 02:12:00;;;;;;;31.83;19.30;;;4.70;99.90;;;;;;5033965;28;20832;-62
2022/01/16 02:14:31;;;;;;;32.30;19.33;;;4.70;99.90;;;;;;5033457;28;20846;-63
2022/01/16 02:28:10;;;;;;;33.53;20.27;;;4.90;99.90;;;;;;5033499;28;20430;-62
2022/01/16 02:31:13;;;;;;;31.90;20.00;;;4.90;99.90;;;;;;5033637;28;20504;-62
2022/01/16 02:36:32;;;;;;;33.00;19.70;;;4.90;99.90;;;;;;5033580;28;20466;-62
2022/01/16 02:39:05;;;;;;;27.30;20.20;;;4.90;99.90;;;;;;5033534;28;20447;-62
2022/01/16 02:41:32;;;;;;;34.97;20.20;;;4.90;99.90;;;;;;5033185;28;20953;-62
2022/01/16 02:43:59;;;;;;;29.60;20.87;;;5.00;99.90;;;;;;5033335;28;20478;-62
2022/01/16 02:46:41;;;;;;;25.47;19.50;;;5.00;99.90;;;;;;5033426;28;20446;-62
2022/01/16 02:49:19;;;;;;;31.40;20.70;;;5.00;99.90;;;;;;5033442;28;20426;-62
2022/01/16 02:51:46;;;;;;;32.00;20.20;;;5.00;99.90;;;;;;5033024;28;20937;-62
2022/01/16 02:54:14;;;;;;;35.07;22.93;;;5.00;99.90;;;;;;5032965;28;20490;-63
2022/01/16 02:56:43;;;;;;;38.10;20.90;;;5.00;99.90;;;;;;5033016;28;20442;-62
2022/01/16 02:59:11;;;;;;;30.33;20.17;;;5.00;99.90;;;;;;5033265;28;20446;-62
2022/01/16 03:01:38;;;;;;;30.87;21.53;;;4.90;99.90;;;;;;5032966;28;20937;-62
2022/01/16 03:04:05;;;;;;;36.60;21.17;;;4.90;99.90;;;;;;5033189;28;20466;-63
2022/01/16 03:06:32;;;;;;;32.40;23.93;;;4.80;99.90;;;;;;5032926;28;20451;-62
2022/01/16 03:08:59;;;;;;;35.43;25.37;;;4.70;99.90;;;;;;5033172;28;20453;-62
2022/01/16 03:11:34;;;;;;;39.67;24.97;;;4.60;99.90;;;;;;5033204;28;20435;-62
2022/01/16 03:14:01;;;;;;;35.63;23.80;;;4.50;99.90;;;;;;5033091;28;20484;-62
2022/01/16 03:16:28;;;;;;;34.80;22.10;;;4.50;99.90;;;;;;5032711;28;20474;-62
2022/01/16 03:22:02;;;;;;;39.57;24.50;;;4.30;99.90;;;;;;5033169;28;20941;-62
2022/01/16 03:24:34;;;;;;;42.23;27.70;;;4.30;99.90;;;;;;5032618;28;20970;-63
2022/01/16 03:27:04;;;;;;;47.57;26.63;;;4.20;99.90;;;;;;5032687;28;20874;-63
2022/01/16 03:29:31;;;;;;;44.73;28.33;;;4.20;99.90;;;;;;5032939;28;20434;-62
2022/01/16 03:32:01;;;;;;;44.70;26.50;;;4.20;99.90;;;;;;5032562;28;20450;-62
2022/01/16 03:34:28;;;;;;;47.23;27.67;;;4.20;99.90;;;;;;5035527;28;21003;-62
2022/01/16 03:36:55;;;;;;;51.93;30.60;;;4.20;99.90;;;;;;5036743;28;20450;-63
2022/01/16 03:39:22;;;;;;;52.73;33.23;;;4.30;99.90;;;;;;5037204;28;20453;-63
2022/01/16 03:41:49;;;;;;;51.63;30.83;;;4.30;99.90;;;;;;5036706;28;20446;-63
2022/01/16 03:44:17;;;;;;;47.60;30.63;;;4.30;99.90;;;;;;5036241;28;20473;-63
2022/01/16 03:46:44;;;;;;;48.43;30.33;;;4.40;99.90;;;;;;5036632;28;20443;-62
2022/01/16 03:49:13;;;;;;;51.83;31.10;;;4.50;99.90;;;;;;5036572;28;20442;-62
2022/01/16 03:51:42;;;;;;;52.47;30.70;;;4.60;99.90;;;;;;5036514;28;20585;-62
2022/01/16 03:54:11;;;;;;;49.60;29.40;;;4.70;99.90;;;;;;5036079;28;20478;-62
2022/01/16 03:56:38;;;;;;;44.07;29.63;;;4.80;99.90;;;;;;5035972;28;20478;-62
2022/01/16 03:59:06;;;;;;;51.53;31.37;;;4.80;99.90;;;;;;5036415;28;20454;-62
2022/01/16 04:01:34;;;;;;;49.53;30.47;;;4.90;99.90;;;;;;5036335;28;20453;-62
2022/01/16 04:04:01;;;;;;;48.30;31.13;;;5.00;99.90;;;;;;5036260;28;20469;-63
2022/01/16 04:06:28;;;;;;;46.13;29.40;;;5.10;99.90;;;;;;5036256;28;20453;-63
2022/01/16 04:08:56;;;;;;;59.27;31.43;;;5.10;99.90;;;;;;5036178;28;20453;-63
2022/01/16 04:11:24;;;;;;;54.17;31.43;;;5.20;99.90;;;;;;5036174;28;20461;-63
2022/01/16 04:13:53;;;;;;;52.07;31.80;;;5.20;99.90;;;;;;5035723;28;20988;-63
2022/01/16 04:16:22;;;;;;;62.93;31.47;;;5.20;99.90;;;;;;5036173;28;20478;-62
2022/01/16 04:18:51;;;;;;;56.00;33.90;;;5.20;99.90;;;;;;5036087;28;20446;-63
2022/01/16 04:21:19;;;;;;;54.40;32.80;;;5.30;99.90;;;;;;5035987;28;20520;-62
2022/01/16 04:23:46;;;;;;;53.50;32.23;;;5.30;99.90;;;;;;5035925;28;20517;-63
2022/01/16 04:26:13;;;;;;;61.63;33.73;;;5.30;99.90;;;;;;5035933;28;20537;-62
2022/01/16 04:28:40;;;;;;;55.50;34.57;;;5.30;99.90;;;;;;5035468;28;20954;-62
2022/01/16 04:31:06;;;;;;;54.33;33.10;;;5.30;99.90;;;;;;5035615;28;20452;-62
2022/01/16 04:33:33;;;;;;;52.90;32.77;;;5.30;99.90;;;;;;5035821;28;20450;-62
2022/01/16 04:36:01;;;;;;;56.80;32.93;;;5.30;99.90;;;;;;5035787;28;20482;-62
2022/01/16 04:38:28;;;;;;;51.60;32.43;;;5.40;99.90;;;;;;5036514;28;20454;-64
2022/01/16 04:43:48;;;;;;;49.47;33.70;;;5.40;99.90;;;;;;5035235;28;20965;-62
2022/01/16 04:46:15;;;;;;;50.50;30.07;;;5.40;99.90;;;;;;5035514;28;20431;-62
2022/01/16 04:48:41;;;;;;;51.70;33.10;;;5.40;99.90;;;;;;5035507;28;20438;-62
2022/01/16 04:51:10;;;;;;;48.37;32.13;;;5.40;99.90;;;;;;5035542;28;20472;-62
2022/01/16 04:53:37;;;;;;;51.60;30.60;;;5.50;99.90;;;;;;5035227;28;20466;-63
2022/01/16 04:56:05;;;;;;;52.43;32.83;;;5.50;99.90;;;;;;5035320;28;20473;-62
2022/01/16 04:58:31;;;;;;;48.30;30.50;;;5.50;99.90;;;;;;5035024;28;20881;-62
2022/01/16 05:00:58;;;;;;;52.03;32.77;;;5.50;99.90;;;;;;5035010;28;20454;-62
2022/01/16 05:03:27;;;;;;;47.43;30.57;;;5.50;99.90;;;;;;5035132;28;20450;-62
2022/01/16 05:05:54;;;;;;;47.90;33.40;;;5.60;99.90;;;;;;5035221;28;20442;-62
2022/01/16 05:08:23;;;;;;;56.77;30.73;;;5.50;99.90;;;;;;5035121;28;20450;-62
2022/01/16 05:10:53;;;;;;;50.93;31.23;;;5.60;99.90;;;;;;5035073;28;20449;-62
2022/01/16 05:13:30;;;;;;;49.90;32.63;;;5.60;99.90;;;;;;5034584;28;21003;-62
2022/01/16 05:18:43;;;;;;;49.93;35.17;;;5.70;99.90;;;;;;5035055;28;20956;-62
2022/01/16 05:21:11;;;;;;;58.73;34.10;;;5.70;99.90;;;;;;5034913;28;20451;-62
2022/01/16 05:23:40;;;;;;;51.37;34.50;;;5.70;99.90;;;;;;5034899;28;20516;-63
2022/01/16 05:26:08;;;;;;;53.07;34.10;;;5.70;99.90;;;;;;5034726;28;20447;-62
2022/01/16 05:28:35;;;;;;;53.27;33.10;;;5.60;99.90;;;;;;5034389;28;20954;-62
2022/01/16 05:31:01;;;;;;;51.40;33.00;;;5.70;99.90;;;;;;5034727;28;20446;-62
2022/01/16 05:33:28;;;;;;;51.53;33.27;;;5.60;99.90;;;;;;5034541;28;20454;-62
2022/01/16 05:35:55;;;;;;;51.17;32.47;;;5.70;99.90;;;;;;5034470;28;20486;-62
2022/01/16 05:38:22;;;;;;;50.20;33.27;;;5.70;99.90;;;;;;5035119;28;20504;-63
2022/01/16 05:40:50;;;;;;;53.00;34.40;;;5.60;99.90;;;;;;5034496;28;20450;-63
2022/01/16 05:43:16;;;;;;;50.60;31.20;;;5.70;99.90;;;;;;5034428;28;20449;-63
2022/01/16 05:45:43;;;;;;;48.80;34.00;;;5.70;99.90;;;;;;5034121;28;20837;-62
2022/01/16 05:48:10;;;;;;;53.43;34.93;;;5.70;99.90;;;;;;5034380;28;20457;-62
2022/01/16 05:50:37;;;;;;;51.43;33.80;;;5.70;99.90;;;;;;5034332;28;20446;-62
2022/01/16 05:53:04;;;;;;;59.90;36.03;;;5.70;99.90;;;;;;5034261;28;20454;-62
2022/01/16 05:55:36;;;;;;;55.77;35.70;;;5.70;99.90;;;;;;5033096;28;20494;-62
2022/01/16 05:58:04;;;;;;;49.10;33.97;;;5.70;99.90;;;;;;5034264;28;20532;-62
2022/01/16 06:00:31;;;;;;;50.60;33.40;;;5.70;99.90;;;;;;5034118;28;20443;-62
2022/01/16 06:02:58;;;;;;;58.83;37.70;;;5.70;99.90;;;;;;5034095;28;20532;-62
2022/01/16 06:05:25;;;;;;;52.00;34.57;;;5.70;99.90;;;;;;5034054;28;20466;-62
2022/01/16 06:07:55;;;;;;;51.33;34.77;;;5.60;99.90;;;;;;5034013;28;20453;-62
2022/01/16 06:10:22;;;;;;;63.03;38.20;;;5.50;99.90;;;;;;5033754;28;20530;-62
2022/01/16 06:12:49;;;;;;;56.53;34.37;;;5.50;99.90;;;;;;5033640;28;20853;-62
2022/01/16 06:15:17;;;;;;;64.03;37.50;;;5.50;99.90;;;;;;5033740;28;20509;-62
2022/01/16 06:17:44;;;;;;;54.90;35.80;;;5.50;99.90;;;;;;5033788;28;20453;-62
2022/01/16 06:20:10;;;;;;;51.30;35.47;;;5.40;99.90;;;;;;5033800;28;20442;-62
2022/01/16 06:22:37;;;;;;;50.93;34.27;;;5.40;99.90;;;;;;5033755;28;20450;-62
2022/01/16 06:25:04;;;;;;;52.20;33.77;;;5.40;99.90;;;;;;5033307;28;20881;-62
2022/01/16 06:27:31;;;;;;;53.53;34.60;;;5.30;99.90;;;;;;5033701;28;20497;-62
2022/01/16 06:29:58;;;;;;;60.83;36.40;;;5.30;99.90;;;;;;5033621;28;20446;-62
2022/01/16 06:32:26;;;;;;;60.83;36.57;;;5.20;99.90;;;;;;5033317;28;20454;-62
2022/01/16 06:34:52;;;;;;;56.40;36.27;;;5.20;99.90;;;;;;5033501;28;20803;-62
2022/01/16 06:37:19;;;;;;;54.67;35.33;;;5.10;99.90;;;;;;5033434;28;20558;-62
2022/01/16 06:39:46;;;;;;;51.80;33.70;;;5.10;99.90;;;;;;5033500;28;20451;-62
2022/01/16 06:42:12;;;;;;;50.90;34.27;;;5.10;99.90;;;;;;5033204;28;20977;-62
2022/01/16 06:44:39;;;;;;;56.50;35.03;;;5.20;99.90;;;;;;5033396;28;20503;-62
2022/01/16 06:47:06;;;;;;;56.27;35.27;;;5.20;99.90;;;;;;5033444;28;20442;-62
2022/01/16 06:49:34;;;;;;;55.43;35.57;;;5.10;99.90;;;;;;5033437;28;20452;-62
2022/01/16 06:52:01;;;;;;;57.60;35.40;;;5.00;99.90;;;;;;5033178;28;20500;-62
2022/01/16 06:54:27;;;;;;;59.87;38.17;;;4.90;99.90;;;;;;5032991;28;20532;-62
2022/01/16 06:56:54;;;;;;;61.10;37.20;;;4.90;99.90;;;;;;5033314;28;20536;-62
2022/01/16 06:59:21;;;;;;;57.10;36.00;;;4.90;99.90;;;;;;5033352;28;20445;-62
2022/01/16 07:01:48;;;;;;;64.93;37.17;;;4.90;99.90;;;;;;5033275;28;20446;-62
2022/01/16 07:04:14;;;;;;;67.20;38.37;;;4.90;99.90;;;;;;5033242;28;20466;-63
2022/01/16 07:06:42;;;;;;;61.17;36.83;;;4.90;99.90;;;;;;5033675;28;20442;-62
2022/01/16 07:09:09;;;;;;;54.40;34.67;;;4.90;99.90;;;;;;5037346;28;20468;-62
2022/01/16 07:11:36;;;;;;;64.93;37.07;;;4.90;99.90;;;;;;5037084;28;20446;-62
2022/01/16 07:14:03;;;;;;;61.53;36.30;;;4.90;99.90;;;;;;5037158;28;20477;-62
2022/01/16 07:16:29;;;;;;;55.60;36.70;;;4.90;99.90;;;;;;5037138;28;20493;-62
2022/01/16 07:18:56;;;;;;;60.13;36.77;;;4.90;99.90;;;;;;5037145;28;20446;-62
2022/01/16 07:21:23;;;;;;;60.63;38.20;;;4.90;99.90;;;;;;5037085;28;20458;-62
2022/01/16 07:23:53;;;;;;;65.60;39.07;;;4.90;99.90;;;;;;5036988;28;20473;-62
2022/01/16 07:26:20;;;;;;;59.53;35.37;;;4.90;99.90;;;;;;5037056;28;20525;-62
2022/01/16 07:28:47;;;;;;;55.87;35.17;;;4.90;99.90;;;;;;5036971;28;20443;-62
2022/01/16 07:31:14;;;;;;;60.00;37.90;;;4.90;99.90;;;;;;5036947;28;20529;-62
2022/01/16 07:33:41;;;;;;;58.63;37.17;;;4.90;99.90;;;;;;5036760;28;20466;-62
2022/01/16 07:36:07;;;;;;;56.87;36.93;;;4.90;99.90;;;;;;5036768;28;20489;-62
2022/01/16 07:38:34;;;;;;;53.90;34.27;;;4.90;99.90;;;;;;5036793;28;20454;-62
2022/01/16 07:41:03;;;;;;;58.80;36.57;;;4.90;99.90;;;;;;5036757;28;20447;-62
2022/01/16 07:43:30;;;;;;;65.37;39.27;;;4.90;99.90;;;;;;5036597;28;20446;-62
2022/01/16 07:45:56;;;;;;;58.90;37.07;;;4.80;99.90;;;;;;5036669;28;20841;-62
2022/01/16 07:48:23;;;;;;;63.37;36.40;;;4.80;99.90;;;;;;5036587;28;20446;-62
2022/01/16 07:50:50;;;;;;;67.83;39.27;;;4.90;99.90;;;;;;5036611;28;20457;-62
2022/01/16 07:53:16;;;;;;;62.67;39.60;;;4.80;99.90;;;;;;5036564;28;20453;-62
2022/01/16 07:55:43;;;;;;;58.60;37.67;;;4.80;99.90;;;;;;5036425;28;20449;-62
2022/01/16 07:58:11;;;;;;;66.43;37.67;;;4.80;99.90;;;;;;5036132;28;20504;-62
2022/01/16 08:00:38;;;;;;;55.03;36.03;;;4.80;99.90;;;;;;5036980;28;20790;-62
2022/01/16 08:03:05;;;;;;;62.80;37.07;;;4.80;99.90;;;;;;5036336;28;20500;-62
2022/01/16 08:05:34;;;;;;;62.30;38.00;;;4.80;99.90;;;;;;5035949;28;20977;-62
2022/01/16 08:08:00;;;;;;;61.93;37.00;;;4.80;99.90;;;;;;5036265;28;20446;-62
2022/01/16 08:10:27;;;;;;;56.90;35.67;;;4.80;99.90;;;;;;5035898;28;20972;-62
2022/01/16 08:12:54;;;;;;;64.80;40.17;;;4.80;99.90;;;;;;5036193;28;20458;-62
2022/01/16 08:15:22;;;;;;;69.20;41.30;;;4.90;99.90;;;;;;5036073;28;20469;-62
2022/01/16 08:17:49;;;;;;;66.37;38.30;;;4.80;99.90;;;;;;5035726;28;20997;-62
2022/01/16 08:20:16;;;;;;;67.73;37.67;;;4.80;99.90;;;;;;5035346;28;20442;-62
2022/01/16 08:22:43;;;;;;;64.17;37.20;;;4.80;99.90;;;;;;5036017;28;20492;-62
2022/01/16 08:25:10;;;;;;;61.30;35.97;;;4.80;99.90;;;;;;5036496;28;20474;-65
2022/01/16 08:27:37;;;;;;;59.90;37.27;;;4.90;99.90;;;;;;5036873;28;20439;-65
2022/01/16 08:30:06;;;;;;;64.90;37.70;;;4.90;99.90;;;;;;5036544;28;20446;-68
2022/01/16 08:32:34;;;;;;;62.57;35.07;;;4.90;99.90;;;;;;5035534;28;20934;-66
2022/01/16 08:35:01;;;;;;;62.50;36.13;;;4.90;99.90;;;;;;5035719;28;20538;-66
2022/01/16 08:37:28;;;;;;;59.40;36.17;;;4.90;99.90;;;;;;5035504;28;20478;-66
2022/01/16 08:39:55;;;;;;;63.50;35.73;;;4.90;99.90;;;;;;5035700;28;20902;-66
2022/01/16 08:42:22;;;;;;;68.20;37.50;;;4.90;99.90;;;;;;5035654;28;20451;-66
2022/01/16 08:44:49;;;;;;;61.03;37.20;;;5.00;99.90;;;;;;5035559;28;20470;-66
2022/01/16 08:47:16;;;;;;;56.10;33.37;;;4.90;99.90;;;;;;5035655;28;20813;-66
2022/01/16 08:49:44;;;;;;;59.27;33.43;;;4.90;99.90;;;;;;5035545;28;20446;-66
2022/01/16 08:52:10;;;;;;;61.23;34.13;;;5.00;99.90;;;;;;5035043;28;20964;-66
2022/01/16 08:54:37;;;;;;;58.83;35.40;;;5.00;99.90;;;;;;5035028;28;20486;-66
2022/01/16 08:57:04;;;;;;;51.93;32.00;;;5.00;99.90;;;;;;5035191;28;20544;-66
2022/01/16 08:59:31;;;;;;;60.77;34.50;;;5.00;99.90;;;;;;5035345;28;20450;-66
2022/01/16 09:01:58;;;;;;;64.77;35.50;;;5.00;99.90;;;;;;5035302;28;20449;-66
2022/01/16 09:04:25;;;;;;;60.77;35.30;;;5.00;99.90;;;;;;5035162;28;20482;-66
2022/01/16 09:06:53;;;;;;;62.97;36.17;;;5.10;99.90;;;;;;5035146;28;20446;-66
2022/01/16 09:09:20;;;;;;;54.43;32.43;;;5.10;99.90;;;;;;5035165;28;20438;-66
2022/01/16 09:11:47;;;;;;;52.20;32.97;;;5.10;99.90;;;;;;5035104;28;20450;-66
2022/01/16 09:14:14;;;;;;;57.67;31.40;;;5.20;99.90;;;;;;5035012;28;20525;-66
2022/01/16 09:16:41;;;;;;;55.80;33.70;;;5.20;99.90;;;;;;5034906;28;20481;-66
2022/01/16 09:19:08;;;;;;;60.47;32.50;;;5.10;99.90;;;;;;5034655;28;20953;-66
2022/01/16 09:21:36;;;;;;;53.43;32.00;;;5.10;99.90;;;;;;5034890;28;20492;-66
2022/01/16 09:24:05;;;;;;;63.13;33.97;;;5.10;99.90;;;;;;5034772;28;20470;-66
2022/01/16 09:26:31;;;;;;;55.80;31.47;;;5.20;99.90;;;;;;5034830;28;20442;-66
2022/01/16 09:28:58;;;;;;;52.60;32.67;;;5.30;99.90;;;;;;5034719;28;20427;-67
2022/01/16 09:31:25;;;;;;;52.77;31.40;;;5.30;99.90;;;;;;5034206;28;20441;-66
2022/01/16 09:33:51;;;;;;;60.13;33.43;;;5.30;99.90;;;;;;5034546;28;20469;-66
2022/01/16 09:36:18;;;;;;;61.23;35.30;;;5.30;99.90;;;;;;5034419;28;20446;-66
2022/01/16 09:38:49;;;;;;;60.00;33.80;;;5.40;99.90;;;;;;5034549;28;20453;-67
2022/01/16 09:41:18;;;;;;;55.50;33.77;;;5.40;99.90;;;;;;5034446;28;20489;-66
2022/01/16 09:43:45;;;;;;;54.83;32.87;;;5.40;99.90;;;;;;5034288;28;20469;-66
2022/01/16 09:46:12;;;;;;;48.43;32.23;;;5.50;99.90;;;;;;5034600;28;20449;-67
2022/01/16 09:48:38;;;;;;;59.80;33.83;;;5.50;99.90;;;;;;5034382;28;20508;-67
2022/01/16 09:51:06;;;;;;;56.57;33.20;;;5.50;99.90;;;;;;5034351;28;20450;-67
2022/01/16 09:53:33;;;;;;;62.63;35.13;;;5.50;99.90;;;;;;5034021;28;20454;-66
2022/01/16 09:55:59;;;;;;;55.57;34.73;;;5.50;99.90;;;;;;5034353;28;20446;-67
2022/01/16 09:58:28;;;;;;;53.37;33.30;;;5.60;99.90;;;;;;5034179;28;20637;-66
2022/01/16 10:00:55;;;;;;;55.60;30.97;;;5.60;99.90;;;;;;5034216;28;20457;-66
2022/01/16 10:03:38;;;;;;;54.20;33.10;;;5.60;99.90;;;;;;5034023;28;20450;-66
2022/01/16 10:06:15;;;;;;;62.20;34.20;;;5.70;99.90;;;;;;5034130;28;20434;-66
2022/01/16 10:08:44;;;;;;;57.10;31.77;;;5.70;99.90;;;;;;5034036;28;20436;-66
2022/01/16 10:11:28;;;;;;;60.23;34.10;;;5.60;99.90;;;;;;5033632;28;20954;-66
2022/01/16 10:14:00;;;;;;;55.77;30.23;;;5.60;99.90;;;;;;5033502;28;20481;-66
2022/01/16 10:16:30;;;;;;;60.63;29.30;;;5.60;99.90;;;;;;5033864;28;20434;-68
2022/01/16 10:18:57;;;;;;;56.00;32.13;;;5.60;99.90;;;;;;5033847;28;20453;-67
2022/01/16 10:21:36;;;;;;;66.97;36.40;;;5.50;99.90;;;;;;5033443;28;20950;-66
2022/01/16 10:24:23;;;;;;;59.77;32.93;;;5.50;99.90;;;;;;5033692;28;20470;-66
2022/01/16 10:27:11;;;;;;;56.73;33.53;;;5.50;99.90;;;;;;5033635;28;20431;-66
2022/01/16 10:29:41;;;;;;;56.53;32.40;;;5.60;99.90;;;;;;5033713;28;20435;-66
2022/01/16 10:32:16;;;;;;;55.80;34.70;;;5.60;99.90;;;;;;5033380;28;20958;-67
2022/01/16 10:34:43;;;;;;;61.87;34.13;;;5.60;99.90;;;;;;5033184;28;20877;-68
2022/01/16 10:37:25;;;;;;;64.57;34.87;;;5.70;99.90;;;;;;5033478;28;20517;-68
2022/01/16 10:39:54;;;;;;;62.03;33.87;;;5.70;99.90;;;;;;5033516;28;20438;-68
2022/01/16 10:42:20;;;;;;;60.90;32.00;;;5.70;99.90;;;;;;5032905;28;20447;-68
2022/01/16 10:44:56;;;;;;;68.17;35.03;;;5.70;99.90;;;;;;5033388;28;20463;-68
2022/01/16 10:47:24;;;;;;;61.80;34.50;;;5.70;99.90;;;;;;5033479;28;20465;-68
2022/01/16 10:50:04;;;;;;;60.43;33.67;;;5.70;99.90;;;;;;5033597;28;20783;-69
2022/01/16 10:52:31;;;;;;;65.73;36.97;;;5.70;99.90;;;;;;5033357;28;20453;-69
2022/01/16 10:55:06;;;;;;;56.30;33.33;;;5.70;99.90;;;;;;5032885;28;20851;-68
2022/01/16 10:57:33;;;;;;;61.87;34.30;;;5.80;99.90;;;;;;5033266;28;20470;-69
2022/01/16 11:00:11;;;;;;;66.30;34.63;;;5.70;99.90;;;;;;5033357;28;20840;-69
2022/01/16 11:02:39;;;;;;;57.20;34.97;;;5.80;99.90;;;;;;5033020;28;20796;-69
2022/01/16 11:05:09;;;;;;;64.87;33.67;;;5.90;99.90;;;;;;5033177;28;20466;-69
2022/01/16 11:07:36;;;;;;;66.57;34.13;;;5.90;99.90;;;;;;5032893;28;20934;-69
2022/01/16 11:10:19;;;;;;;57.20;31.57;;;6.00;99.90;;;;;;5032885;28;20442;-69
2022/01/16 11:12:47;;;;;;;57.00;32.10;;;6.00;99.90;;;;;;5033248;28;20458;-69
2022/01/16 11:15:15;;;;;;;61.40;33.50;;;6.00;99.90;;;;;;5033044;28;20471;-69
2022/01/16 11:17:42;;;;;;;55.23;32.50;;;6.00;99.90;;;;;;5033138;28;20473;-69
2022/01/16 11:20:11;;;;;;;57.33;33.40;;;6.00;99.90;;;;;;5033130;28;20516;-69
2022/01/16 11:22:56;;;;;;;60.67;33.90;;;6.00;99.90;;;;;;5033043;28;20795;-69
2022/01/16 11:25:31;;;;;;;55.70;31.37;;;6.00;99.90;;;;;;5032978;28;20482;-68
2022/01/16 11:28:00;;;;;;;56.87;31.83;;;6.00;99.90;;;;;;5033119;28;20502;-69
2022/01/16 11:30:29;;;;;;;55.10;30.10;;;6.00;99.90;;;;;;5032700;28;20461;-69
2022/01/16 11:32:56;;;;;;;52.77;29.87;;;6.10;99.90;;;;;;5032853;28;20478;-69
2022/01/16 11:35:23;;;;;;;55.33;31.07;;;6.00;99.90;;;;;;5032800;28;20471;-69
2022/01/16 11:37:51;;;;;;;49.97;29.33;;;6.10;99.90;;;;;;5032793;28;20540;-68
2022/01/16 11:40:27;;;;;;;57.77;28.93;;;6.10;99.90;;;;;;5032628;28;20968;-68
2022/01/16 11:43:19;;;;;;;57.40;30.80;;;6.20;99.90;;;;;;5032587;28;20897;-69
2022/01/16 11:45:49;;;;;;;48.17;27.37;;;6.30;99.90;;;;;;5032869;28;20493;-69
2022/01/16 11:48:19;;;;;;;52.53;28.80;;;6.30;99.90;;;;;;5032575;28;20438;-69
2022/01/16 11:50:47;;;;;;;48.70;26.20;;;6.30;99.90;;;;;;5032917;28;20435;-69
2022/01/16 11:53:53;;;;;;;47.37;28.67;;;6.30;99.90;;;;;;5032893;28;20450;-69
2022/01/16 11:56:49;;;;;;;47.60;27.73;;;6.40;99.90;;;;;;5036520;28;20487;-69
2022/01/16 11:59:18;;;;;;;46.27;26.13;;;6.40;99.90;;;;;;5036395;28;20468;-69
2022/01/16 12:01:48;;;;;;;44.50;25.80;;;6.40;99.90;;;;;;5037160;28;20476;-69
2022/01/16 12:04:48;;;;;;;48.87;27.67;;;6.40;99.90;;;;;;5036237;28;20469;-68
2022/01/16 12:07:56;;;;;;;51.73;28.70;;;6.40;99.90;;;;;;5037193;28;20431;-69
2022/01/16 12:10:45;;;;;;;45.20;25.87;;;6.40;99.90;;;;;;5036234;28;20498;-69
2022/01/16 12:13:54;;;;;;;45.60;26.27;;;6.40;99.90;;;;;;5036194;28;20435;-70
2022/01/16 12:16:48;;;;;;;44.70;27.53;;;6.50;99.90;;;;;;5036231;28;20904;-69
2022/01/16 12:19:51;;;;;;;41.30;26.20;;;6.60;99.90;;;;;;5035758;28;20996;-69
2022/01/16 12:22:42;;;;;;;44.13;25.43;;;6.70;99.90;;;;;;5035713;28;20433;-69
2022/01/16 12:25:17;;;;;;;40.93;24.30;;;6.80;99.90;;;;;;5035693;28;20869;-68
2022/01/16 12:27:54;;;;;;;40.30;23.33;;;6.80;99.90;;;;;;5036011;28;20418;-69
2022/01/16 12:30:48;;;;;;;43.33;26.30;;;6.70;99.90;;;;;;5035968;28;20841;-70
2022/01/16 12:33:37;;;;;;;39.57;24.13;;;6.60;99.90;;;;;;5035898;28;20426;-69
2022/01/16 12:36:14;;;;;;;40.00;24.07;;;6.60;99.90;;;;;;5035795;28;20438;-69
2022/01/16 12:39:00;;;;;;;42.57;24.30;;;6.60;99.90;;;;;;5035742;28;20470;-69
2022/01/16 12:41:30;;;;;;;41.47;24.37;;;6.50;99.90;;;;;;5032484;28;20545;-69
2022/01/16 12:43:59;;;;;;;40.27;25.90;;;6.50;99.90;;;;;;5035345;28;21048;-68
2022/01/16 12:46:30;;;;;;;42.40;23.87;;;6.40;99.90;;;;;;5035713;28;20507;-70
2022/01/16 12:49:01;;;;;;;43.03;25.90;;;6.40;99.90;;;;;;5035796;28;20438;-69
2022/01/16 12:51:30;;;;;;;39.73;25.63;;;6.40;99.90;;;;;;5035571;28;20465;-69
2022/01/16 12:54:01;;;;;;;42.40;24.70;;;6.30;99.90;;;;;;5035167;28;20478;-69
2022/01/16 12:56:31;;;;;;;43.17;26.10;;;6.40;99.90;;;;;;5035503;28;20439;-69
2022/01/16 12:59:00;;;;;;;44.57;26.00;;;6.40;99.90;;;;;;5035334;28;20486;-69
2022/01/16 13:01:28;;;;;;;41.10;24.87;;;6.50;99.90;;;;;;5035347;28;20446;-69
2022/01/16 13:03:54;;;;;;;40.53;25.77;;;6.60;99.90;;;;;;5035181;28;20470;-69
2022/01/16 13:06:26;;;;;;;41.07;25.23;;;6.70;99.90;;;;;;5035003;28;20787;-69
2022/01/16 13:08:59;;;;;;;40.53;25.60;;;6.70;99.90;;;;;;5035176;28;20523;-69
2022/01/16 13:11:28;;;;;;;39.17;25.30;;;6.80;99.90;;;;;;5035104;28;20434;-69
2022/01/16 13:13:55;;;;;;;36.90;24.73;;;6.80;99.90;;;;;;5035119;28;20462;-68
2022/01/16 13:16:24;;;;;;;36.10;24.00;;;6.80;99.90;;;;;;5035016;28;20496;-69
2022/01/16 13:19:10;;;;;;;38.67;25.20;;;6.80;99.90;;;;;;5034941;28;20482;-70
2022/01/16 13:21:43;;;;;;;37.00;22.70;;;6.80;99.90;;;;;;5034682;28;20937;-70